Eden Valley, Minnesota
Current Conditions -  °F | °C
As of 9:14 PM on Wednesday 22 Oct 2014 (Local Time) from KPEX Reporting Station
Overcast Overcast  
Wind Chill: 56°   Ceiling: 3300
Heat Index: 56°   Visibility: 10mi
Dew Point: 44°   Wind: 15mph
Humidity: 63%   Direction: 120°ESE
Pressure: 29.98"   Gusts: 20mph
Location:  45.33°N, 94.55°W
Report Text: KPEX 230214Z AUTO 12013G17KT 10SM OVC033 14/07 A2998 RMK AO2 T01350065
Loading
Personal Weather Stations






























Interactive Weather Map New forecast layout! Learn more

10-Day Weather Forecast

Advertisements
Track Severe Weather on mobile